Weather at Meaker RLA Heliport

Public forecast

Using degrees Fahrenheit for public forecast. Weather courtesy of forecast.io.

Closest aviation weather report (METAR) to Meaker RLA Heliport

Closest report is Marshall County Airport, 17.3 nm (32.0 km) E. Retrieved 2021/10/21 22:35 UTC (52 minutes ago):

KC75 212235Z AUTO 28005KT 3SM BR OVC011 11/10 A3002 RMK AO2 T01120095

Closest aviation forecast (TAF) to Meaker RLA Heliport

Closest forecast is General Wayne A. Downing Peoria International Airport, 24.8 nm (45.9 km) S. Retrieved 2021/10/21 18:22 UTC (5 hours ago):

TAF KPIA 211720Z 2118/2218 28013G20KT P6SM OVC018 FM212300 30008KT P6SM OVC012 FM220400 35005KT P6SM OVC018 FM221500 30008KT P6SM BKN030